Time;durP1;ratioP1;P1;durP2;ratioP2;P2;SDS_P1;SDS_P2;PMS_P1;PMS_P2;Temp;Humidity;BMP_temperature;BMP_pressure;BME280_temperature;BME280_humidity;BME280_pressure;Samples;Min_cycle;Max_cycle;Signal;HPM_P1;HPM_P2
2023/12/10 00:00:24;;;;;;;17.67;3.43;;;;;;;;;;6305264;22;20251;-78
2023/12/10 00:02:51;;;;;;;16.17;2.93;;;;;;;;;;6305504;22;20162;-78
2023/12/10 00:05:18;;;;;;;13.97;3.00;;;;;;;;;;6306886;22;20184;-78
2023/12/10 00:07:45;;;;;;;16.60;3.43;;;;;;;;;;6307562;22;20205;-79
2023/12/10 00:10:14;;;;;;;18.47;3.30;;;;;;;;;;6306933;22;20169;-79
2023/12/10 00:12:41;;;;;;;18.87;3.30;;;;;;;;;;6307161;22;20577;-79
2023/12/10 00:15:09;;;;;;;18.03;3.43;;;;;;;;;;6307783;22;20223;-78
2023/12/10 00:17:36;;;;;;;25.93;3.53;;;;;;;;;;6307492;22;20562;-79
2023/12/10 00:20:04;;;;;;;19.50;3.00;;;;;;;;;;6307243;22;20216;-78
2023/12/10 00:22:31;;;;;;;27.10;4.03;;;;;;;;;;6306996;22;20170;-78
2023/12/10 00:24:58;;;;;;;21.37;3.40;;;;;;;;;;6307288;22;20614;-78
2023/12/10 00:27:27;;;;;;;21.57;3.20;;;;;;;;;;6307406;22;20197;-78
2023/12/10 00:29:54;;;;;;;20.87;3.47;;;;;;;;;;6307391;22;20162;-77
2023/12/10 00:32:21;;;;;;;22.40;3.50;;;;;;;;;;6307044;22;20170;-78
2023/12/10 00:34:48;;;;;;;21.97;3.67;;;;;;;;;;6306527;22;20192;-78
2023/12/10 00:37:16;;;;;;;22.97;3.73;;;;;;;;;;6307144;22;20173;-79
2023/12/10 00:39:43;;;;;;;19.20;3.83;;;;;;;;;;6306896;22;20173;-79
2023/12/10 00:42:10;;;;;;;18.73;3.87;;;;;;;;;;6306385;22;20174;-78
2023/12/10 00:44:39;;;;;;;23.90;5.03;;;;;;;;;;6306520;22;20250;-78
2023/12/10 00:47:06;;;;;;;20.30;3.70;;;;;;;;;;6306724;22;20583;-78
2023/12/10 00:49:33;;;;;;;22.50;4.10;;;;;;;;;;6306450;22;20660;-79
2023/12/10 00:52:00;;;;;;;22.27;4.30;;;;;;;;;;6306769;22;20173;-78
2023/12/10 00:54:29;;;;;;;26.30;4.57;;;;;;;;;;6305763;22;20698;-78
2023/12/10 00:56:57;;;;;;;24.17;3.60;;;;;;;;;;6306200;22;20177;-79
2023/12/10 00:59:24;;;;;;;25.10;4.00;;;;;;;;;;6306696;22;20660;-77
2023/12/10 01:01:53;;;;;;;24.30;3.77;;;;;;;;;;6306503;22;20169;-78
2023/12/10 01:04:22;;;;;;;24.40;3.87;;;;;;;;;;6306220;22;20723;-77
2023/12/10 01:06:49;;;;;;;21.37;3.50;;;;;;;;;;6306368;22;20659;-78
2023/12/10 01:09:16;;;;;;;20.53;3.07;;;;;;;;;;6306318;22;20169;-77
2023/12/10 01:11:44;;;;;;;24.50;3.70;;;;;;;;;;6306487;22;20197;-78
2023/12/10 01:14:11;;;;;;;21.30;3.33;;;;;;;;;;6305954;22;20166;-78
2023/12/10 01:16:38;;;;;;;22.80;4.07;;;;;;;;;;6306641;22;20174;-78
2023/12/10 01:19:07;;;;;;;24.10;3.67;;;;;;;;;;6306265;22;20201;-78
2023/12/10 01:21:34;;;;;;;24.50;3.77;;;;;;;;;;6306091;22;20170;-78
2023/12/10 01:24:02;;;;;;;21.93;3.60;;;;;;;;;;6306175;22;20219;-78
2023/12/10 01:26:30;;;;;;;19.80;3.60;;;;;;;;;;6306038;22;20193;-78
2023/12/10 01:28:57;;;;;;;23.00;3.47;;;;;;;;;;6306515;22;20166;-78
2023/12/10 01:31:26;;;;;;;19.47;3.50;;;;;;;;;;6306576;22;20170;-78
2023/12/10 01:33:53;;;;;;;24.03;3.10;;;;;;;;;;6306136;22;20169;-78
2023/12/10 01:36:24;;;;;;;26.87;4.07;;;;;;;;;;6305938;22;20547;-78
2023/12/10 01:38:52;;;;;;;19.80;3.50;;;;;;;;;;6305685;22;20224;-77
2023/12/10 01:41:19;;;;;;;17.03;3.87;;;;;;;;;;6306229;22;20174;-78
2023/12/10 01:43:47;;;;;;;26.90;4.00;;;;;;;;;;6306384;22;20231;-78
2023/12/10 01:46:14;;;;;;;24.23;3.90;;;;;;;;;;6306316;22;20201;-79
2023/12/10 01:48:42;;;;;;;23.00;3.57;;;;;;;;;;6306592;22;20251;-78
2023/12/10 01:51:09;;;;;;;26.47;4.43;;;;;;;;;;6306171;22;20173;-78
2023/12/10 01:53:38;;;;;;;23.97;3.43;;;;;;;;;;6305456;22;20170;-78
2023/12/10 01:56:06;;;;;;;25.70;3.83;;;;;;;;;;6306176;22;20496;-78
2023/12/10 01:58:34;;;;;;;23.93;3.60;;;;;;;;;;6306450;22;20196;-78
2023/12/10 02:01:05;;;;;;;20.30;3.10;;;;;;;;;;6306105;22;20198;-78
2023/12/10 02:03:33;;;;;;;26.87;3.57;;;;;;;;;;6306091;22;20170;-78
2023/12/10 02:06:00;;;;;;;25.23;3.93;;;;;;;;;;6306087;22;20165;-77
2023/12/10 02:08:27;;;;;;;22.20;4.00;;;;;;;;;;6305537;22;20729;-77
2023/12/10 02:10:56;;;;;;;29.60;3.60;;;;;;;;;;6306017;22;20170;-78
2023/12/10 02:13:23;;;;;;;25.00;3.30;;;;;;;;;;6306265;22;20228;-78
2023/12/10 02:15:51;;;;;;;21.67;3.60;;;;;;;;;;6306238;22;20166;-78
2023/12/10 02:18:20;;;;;;;26.63;4.43;;;;;;;;;;6305974;22;20189;-77
2023/12/10 02:20:47;;;;;;;29.27;4.20;;;;;;;;;;6305372;22;20510;-77
2023/12/10 02:23:19;;;;;;;28.00;4.03;;;;;;;;;;6305677;22;20176;-76
2023/12/10 02:25:48;;;;;;;23.93;3.30;;;;;;;;;;6305951;22;20166;-76
2023/12/10 02:28:20;;;;;;;28.70;3.93;;;;;;;;;;6304975;22;20671;-77
2023/12/10 02:30:47;;;;;;;25.33;3.60;;;;;;;;;;6306208;22;20169;-78
2023/12/10 02:33:14;;;;;;;31.50;4.07;;;;;;;;;;6306310;22;20220;-79
2023/12/10 02:35:41;;;;;;;26.90;4.17;;;;;;;;;;6306062;22;20169;-78
2023/12/10 02:38:09;;;;;;;24.60;3.97;;;;;;;;;;6305104;22;20174;-78
2023/12/10 02:40:36;;;;;;;35.90;4.63;;;;;;;;;;6304220;22;20197;-78
2023/12/10 02:43:05;;;;;;;19.87;3.43;;;;;;;;;;6305582;22;20190;-79
2023/12/10 02:45:32;;;;;;;26.17;4.10;;;;;;;;;;6305511;22;20169;-79
2023/12/10 02:48:00;;;;;;;35.10;4.53;;;;;;;;;;6306238;22;20198;-79
2023/12/10 02:50:27;;;;;;;29.67;3.73;;;;;;;;;;6305740;22;20165;-78
2023/12/10 02:52:54;;;;;;;23.80;4.17;;;;;;;;;;6305168;22;20647;-79
2023/12/10 02:55:22;;;;;;;35.87;4.93;;;;;;;;;;6304974;22;20192;-78
2023/12/10 02:57:49;;;;;;;28.73;4.67;;;;;;;;;;6306178;22;20219;-78
2023/12/10 03:00:18;;;;;;;32.43;4.10;;;;;;;;;;6305210;22;20233;-78
2023/12/10 03:02:45;;;;;;;22.60;4.00;;;;;;;;;;6305284;22;20267;-78
2023/12/10 03:05:12;;;;;;;27.63;4.40;;;;;;;;;;6305032;22;20231;-79
2023/12/10 03:07:39;;;;;;;29.43;4.33;;;;;;;;;;6305373;22;20197;-78
2023/12/10 03:10:07;;;;;;;25.60;4.20;;;;;;;;;;6305276;22;20174;-77
2023/12/10 03:12:34;;;;;;;27.13;4.07;;;;;;;;;;6305212;22;20713;-78
2023/12/10 03:15:01;;;;;;;24.93;3.80;;;;;;;;;;6305096;22;20170;-77
2023/12/10 03:17:30;;;;;;;25.87;3.83;;;;;;;;;;6305234;22;20561;-77
2023/12/10 03:19:57;;;;;;;28.53;4.00;;;;;;;;;;6305120;22;20691;-78
2023/12/10 03:22:24;;;;;;;30.37;4.43;;;;;;;;;;6305506;22;20169;-78
2023/12/10 03:24:52;;;;;;;31.97;3.97;;;;;;;;;;6305239;22;20170;-78
2023/12/10 03:27:19;;;;;;;26.73;3.83;;;;;;;;;;6305295;22;20250;-78
2023/12/10 03:29:46;;;;;;;33.37;4.17;;;;;;;;;;6305163;22;20200;-78
2023/12/10 03:32:13;;;;;;;26.30;4.13;;;;;;;;;;6305317;22;20165;-78
2023/12/10 03:34:42;;;;;;;24.83;3.87;;;;;;;;;;6305034;22;20169;-78
2023/12/10 03:37:09;;;;;;;25.10;4.13;;;;;;;;;;6305029;22;20256;-77
2023/12/10 03:39:37;;;;;;;27.07;4.50;;;;;;;;;;6305401;22;20169;-78
2023/12/10 03:42:04;;;;;;;27.57;4.37;;;;;;;;;;6305251;22;20624;-78
2023/12/10 03:44:32;;;;;;;35.93;4.67;;;;;;;;;;6304928;22;20170;-77
2023/12/10 03:47:01;;;;;;;29.33;4.10;;;;;;;;;;6304788;22;20728;-77
2023/12/10 03:49:28;;;;;;;27.53;4.53;;;;;;;;;;6304804;22;20166;-78
2023/12/10 03:51:57;;;;;;;27.83;4.07;;;;;;;;;;6305091;22;20177;-78
2023/12/10 03:54:24;;;;;;;26.60;4.20;;;;;;;;;;6305167;22;20215;-78
2023/12/10 03:56:52;;;;;;;36.87;4.90;;;;;;;;;;6304102;22;20200;-78
2023/12/10 03:59:19;;;;;;;34.87;4.60;;;;;;;;;;6304608;22;20210;-78
2023/12/10 04:01:46;;;;;;;27.87;4.37;;;;;;;;;;6303614;22;20206;-78
2023/12/10 04:04:13;;;;;;;43.63;4.70;;;;;;;;;;6304927;22;20170;-78
2023/12/10 04:06:41;;;;;;;43.37;4.80;;;;;;;;;;6305205;22;20176;-78
2023/12/10 04:09:09;;;;;;;29.20;4.47;;;;;;;;;;6305073;22;20532;-78
2023/12/10 04:11:37;;;;;;;31.13;4.27;;;;;;;;;;6304859;22;20215;-78
2023/12/10 04:14:04;;;;;;;33.87;4.67;;;;;;;;;;6306054;22;20169;-77
2023/12/10 04:16:32;;;;;;;35.50;4.90;;;;;;;;;;6304776;22;20483;-78
2023/12/10 04:18:59;;;;;;;35.43;4.37;;;;;;;;;;6305052;22;20174;-78
2023/12/10 04:21:27;;;;;;;32.00;4.20;;;;;;;;;;6304710;22;20228;-78
2023/12/10 04:23:54;;;;;;;33.17;4.90;;;;;;;;;;6304510;22;20170;-78
2023/12/10 04:26:23;;;;;;;32.03;4.13;;;;;;;;;;6305290;22;20271;-78
2023/12/10 04:28:50;;;;;;;41.00;4.17;;;;;;;;;;6304822;22;20198;-78
2023/12/10 04:31:17;;;;;;;29.87;4.03;;;;;;;;;;6305115;22;20177;-77
2023/12/10 04:33:45;;;;;;;30.03;3.73;;;;;;;;;;6304331;22;20227;-78
2023/12/10 04:36:13;;;;;;;32.97;4.50;;;;;;;;;;6304961;22;20170;-78
2023/12/10 04:38:41;;;;;;;33.47;4.27;;;;;;;;;;6304427;22;20659;-78
2023/12/10 04:41:08;;;;;;;32.87;4.07;;;;;;;;;;6305021;22;20551;-78
2023/12/10 04:43:36;;;;;;;35.07;4.10;;;;;;;;;;6305430;22;20170;-78
2023/12/10 04:46:04;;;;;;;35.97;4.47;;;;;;;;;;6304592;22;20636;-77
2023/12/10 04:48:31;;;;;;;38.83;4.20;;;;;;;;;;6304872;22;20482;-77
2023/12/10 04:50:59;;;;;;;30.03;4.13;;;;;;;;;;6305964;22;20547;-78
2023/12/10 04:53:26;;;;;;;39.43;4.60;;;;;;;;;;6307552;22;20166;-78
2023/12/10 04:55:53;;;;;;;32.37;4.13;;;;;;;;;;6307657;22;20223;-77
2023/12/10 04:58:21;;;;;;;38.07;4.63;;;;;;;;;;6306583;22;20170;-77
2023/12/10 05:00:49;;;;;;;26.67;3.53;;;;;;;;;;6306873;22;20193;-78
2023/12/10 05:03:16;;;;;;;31.13;3.90;;;;;;;;;;6305248;22;20170;-77
2023/12/10 05:05:44;;;;;;;34.77;4.40;;;;;;;;;;6306177;22;20170;-77
2023/12/10 05:08:11;;;;;;;29.50;3.90;;;;;;;;;;6307010;22;20198;-77
2023/12/10 05:10:38;;;;;;;34.60;4.00;;;;;;;;;;6306145;22;20174;-76
2023/12/10 05:13:05;;;;;;;36.53;4.30;;;;;;;;;;6306159;22;20710;-78
2023/12/10 05:15:33;;;;;;;37.17;3.93;;;;;;;;;;6306359;22;20174;-77
2023/12/10 05:18:02;;;;;;;34.47;4.37;;;;;;;;;;6306635;22;20170;-78
2023/12/10 05:20:30;;;;;;;32.33;4.30;;;;;;;;;;6306381;22;20169;-78
2023/12/10 05:22:57;;;;;;;30.63;3.90;;;;;;;;;;6306354;22;20176;-77
2023/12/10 05:25:27;;;;;;;29.03;4.00;;;;;;;;;;6306768;22;20219;-78
2023/12/10 05:27:54;;;;;;;34.80;4.30;;;;;;;;;;6306832;22;20194;-78
2023/12/10 05:30:21;;;;;;;30.03;4.30;;;;;;;;;;6305768;22;20170;-78
2023/12/10 05:32:49;;;;;;;31.30;3.83;;;;;;;;;;6306247;22;20649;-78
2023/12/10 05:35:17;;;;;;;38.87;4.80;;;;;;;;;;6307244;22;20236;-78
2023/12/10 05:37:44;;;;;;;35.93;4.30;;;;;;;;;;6307203;22;20170;-78
2023/12/10 05:40:12;;;;;;;29.30;4.40;;;;;;;;;;6305999;22;20170;-78
2023/12/10 05:42:40;;;;;;;32.20;4.00;;;;;;;;;;6306202;22;20227;-78
2023/12/10 05:45:07;;;;;;;28.47;4.10;;;;;;;;;;6307066;22;20249;-77
2023/12/10 05:47:34;;;;;;;31.80;4.20;;;;;;;;;;6306879;22;20227;-78
2023/12/10 05:50:02;;;;;;;33.60;5.17;;;;;;;;;;6306709;22;20514;-77
2023/12/10 05:52:30;;;;;;;36.47;4.80;;;;;;;;;;6306852;22;20215;-77
2023/12/10 05:54:57;;;;;;;37.80;5.27;;;;;;;;;;6306428;22;20170;-77
2023/12/10 05:57:24;;;;;;;32.77;4.03;;;;;;;;;;6305700;22;20197;-77
2023/12/10 05:59:52;;;;;;;33.03;4.90;;;;;;;;;;6305384;22;20545;-77
2023/12/10 06:02:19;;;;;;;37.23;5.00;;;;;;;;;;6305522;22;20170;-77
2023/12/10 06:04:46;;;;;;;33.53;4.60;;;;;;;;;;6306468;22;20280;-77
2023/12/10 06:07:13;;;;;;;27.13;4.17;;;;;;;;;;6305778;22;20170;-77
2023/12/10 06:09:42;;;;;;;33.50;5.00;;;;;;;;;;6305629;22;20251;-76
2023/12/10 06:12:09;;;;;;;28.67;4.00;;;;;;;;;;6306271;22;20521;-77
2023/12/10 06:14:37;;;;;;;24.67;3.73;;;;;;;;;;6305806;22;20216;-77
2023/12/10 06:17:04;;;;;;;30.90;4.40;;;;;;;;;;6305760;22;20169;-77
2023/12/10 06:19:31;;;;;;;33.87;5.03;;;;;;;;;;6306076;22;20638;-79
2023/12/10 06:21:58;;;;;;;34.67;4.63;;;;;;;;;;6306586;22;20162;-77
2023/12/10 06:24:26;;;;;;;31.37;3.73;;;;;;;;;;6306551;22;20232;-76
2023/12/10 06:26:54;;;;;;;29.27;4.47;;;;;;;;;;6306275;22;20162;-76
2023/12/10 06:29:21;;;;;;;33.47;4.33;;;;;;;;;;6305780;22;20243;-78
2023/12/10 06:31:49;;;;;;;36.47;4.97;;;;;;;;;;6307129;22;20170;-77
2023/12/10 06:34:16;;;;;;;29.30;4.83;;;;;;;;;;6306288;22;20170;-77
2023/12/10 06:36:43;;;;;;;33.00;4.50;;;;;;;;;;6306356;22;20603;-77
2023/12/10 06:39:11;;;;;;;33.60;4.30;;;;;;;;;;6306535;22;20223;-77
2023/12/10 06:41:38;;;;;;;32.93;4.50;;;;;;;;;;6306349;22;20503;-77
2023/12/10 06:44:09;;;;;;;24.53;3.77;;;;;;;;;;6305300;22;20572;-77
2023/12/10 06:46:36;;;;;;;41.70;4.93;;;;;;;;;;6306178;22;20248;-77
2023/12/10 06:49:04;;;;;;;33.30;4.67;;;;;;;;;;6306155;22;20198;-77
2023/12/10 06:51:31;;;;;;;35.77;4.97;;;;;;;;;;6306237;22;20162;-77
2023/12/10 06:53:58;;;;;;;27.27;4.23;;;;;;;;;;6306484;22;20170;-77
2023/12/10 06:56:26;;;;;;;27.10;4.50;;;;;;;;;;6306146;22;20170;-77
2023/12/10 06:58:53;;;;;;;24.73;3.50;;;;;;;;;;6305670;22;20178;-78
2023/12/10 07:01:21;;;;;;;28.57;4.20;;;;;;;;;;6305930;22;20202;-77
2023/12/10 07:03:49;;;;;;;38.17;4.40;;;;;;;;;;6306357;22;20223;-78
2023/12/10 07:06:16;;;;;;;34.37;4.37;;;;;;;;;;6306199;22;20662;-77
2023/12/10 07:08:43;;;;;;;29.33;4.40;;;;;;;;;;6306220;22;20206;-77
2023/12/10 07:11:10;;;;;;;25.50;3.70;;;;;;;;;;6306070;22;20170;-78
2023/12/10 07:13:38;;;;;;;28.10;4.20;;;;;;;;;;6305962;22;20166;-77
2023/12/10 07:16:06;;;;;;;30.90;3.83;;;;;;;;;;6305863;22;20199;-78
2023/12/10 07:18:34;;;;;;;27.57;3.93;;;;;;;;;;6305859;22;20283;-79
2023/12/10 07:21:02;;;;;;;31.27;3.83;;;;;;;;;;6305985;22;20166;-78
2023/12/10 07:23:29;;;;;;;31.97;4.73;;;;;;;;;;6306325;22;20221;-78
2023/12/10 07:25:57;;;;;;;30.83;4.57;;;;;;;;;;6305705;22;20223;-78
2023/12/10 07:28:24;;;;;;;32.70;4.00;;;;;;;;;;6305639;22;20177;-77
2023/12/10 07:30:51;;;;;;;26.73;4.40;;;;;;;;;;6305489;22;20185;-78
2023/12/10 07:33:18;;;;;;;28.63;3.80;;;;;;;;;;6306054;22;20170;-77
2023/12/10 07:35:47;;;;;;;23.60;4.20;;;;;;;;;;6305794;22;20223;-77
2023/12/10 07:38:14;;;;;;;28.87;4.03;;;;;;;;;;6306032;22;20227;-78
2023/12/10 07:40:41;;;;;;;32.20;4.13;;;;;;;;;;6305742;22;20162;-77
2023/12/10 07:43:09;;;;;;;21.13;3.73;;;;;;;;;;6305972;22;20169;-78
2023/12/10 07:45:36;;;;;;;27.03;3.97;;;;;;;;;;6305750;22;20170;-77
2023/12/10 07:48:03;;;;;;;31.03;3.83;;;;;;;;;;6305804;22;20166;-77
2023/12/10 07:50:31;;;;;;;24.90;4.10;;;;;;;;;;6305600;22;20185;-77
2023/12/10 07:52:59;;;;;;;27.93;3.90;;;;;;;;;;6305245;22;20169;-77
2023/12/10 07:55:27;;;;;;;32.77;4.83;;;;;;;;;;6305824;22;20181;-77
2023/12/10 07:57:54;;;;;;;33.10;4.70;;;;;;;;;;6305504;22;20636;-77
2023/12/10 08:00:21;;;;;;;30.93;4.53;;;;;;;;;;6305025;22;20224;-78
2023/12/10 08:02:49;;;;;;;28.80;4.53;;;;;;;;;;6305059;22;20682;-77
2023/12/10 08:05:16;;;;;;;25.07;4.20;;;;;;;;;;6305647;22;20175;-77
2023/12/10 08:07:43;;;;;;;34.90;4.20;;;;;;;;;;6304767;22;20170;-78
2023/12/10 08:10:12;;;;;;;29.57;5.03;;;;;;;;;;6304304;22;20198;-78
2023/12/10 08:12:39;;;;;;;26.00;4.10;;;;;;;;;;6305852;22;20177;-78
2023/12/10 08:15:06;;;;;;;35.20;4.80;;;;;;;;;;6305354;22;20162;-79
2023/12/10 08:17:34;;;;;;;30.70;4.67;;;;;;;;;;6305770;22;20170;-78
2023/12/10 08:20:01;;;;;;;27.00;4.07;;;;;;;;;;6305714;22;20228;-78
2023/12/10 08:22:28;;;;;;;35.47;4.73;;;;;;;;;;6305384;22;20223;-78
2023/12/10 08:24:55;;;;;;;30.97;4.90;;;;;;;;;;6305235;22;20170;-77
2023/12/10 08:27:24;;;;;;;37.70;5.80;;;;;;;;;;6307429;22;20686;-77
2023/12/10 08:29:51;;;;;;;31.93;5.00;;;;;;;;;;6307320;22;20672;-78
2023/12/10 08:32:18;;;;;;;35.10;4.67;;;;;;;;;;6307352;22;20170;-77
2023/12/10 08:34:46;;;;;;;29.93;4.00;;;;;;;;;;6307329;22;20174;-77
2023/12/10 08:37:13;;;;;;;30.50;4.27;;;;;;;;;;6307059;22;20174;-77
2023/12/10 08:39:40;;;;;;;36.67;4.83;;;;;;;;;;6306329;22;20216;-78
2023/12/10 08:42:07;;;;;;;32.43;4.33;;;;;;;;;;6306264;22;20166;-80
2023/12/10 08:44:36;;;;;;;27.00;4.63;;;;;;;;;;6306766;22;20170;-77
2023/12/10 08:47:03;;;;;;;31.17;4.70;;;;;;;;;;6306867;22;20227;-77
2023/12/10 08:49:30;;;;;;;34.33;4.03;;;;;;;;;;6306886;22;20205;-77
2023/12/10 08:51:58;;;;;;;33.20;5.20;;;;;;;;;;6307509;22;20166;-78
2023/12/10 08:54:26;;;;;;;41.27;4.67;;;;;;;;;;6306865;22;20216;-77
2023/12/10 08:56:53;;;;;;;35.40;4.97;;;;;;;;;;6307450;22;20158;-77
2023/12/10 08:59:21;;;;;;;30.93;4.70;;;;;;;;;;6306243;22;20202;-77
2023/12/10 09:01:49;;;;;;;27.93;5.00;;;;;;;;;;6307593;22;20166;-78
2023/12/10 09:04:16;;;;;;;30.30;4.23;;;;;;;;;;6307548;22;20165;-78
2023/12/10 09:06:44;;;;;;;25.33;5.43;;;;;;;;;;6307726;22;20625;-78
2023/12/10 09:09:11;;;;;;;34.90;5.00;;;;;;;;;;6306448;22;20194;-77
2023/12/10 09:11:38;;;;;;;29.50;4.80;;;;;;;;;;6306635;22;20170;-78
2023/12/10 09:14:07;;;;;;;38.60;4.70;;;;;;;;;;6306544;22;20547;-76
2023/12/10 09:16:34;;;;;;;32.93;5.13;;;;;;;;;;6306564;22;20165;-76
2023/12/10 09:19:03;;;;;;;35.13;4.40;;;;;;;;;;6306191;22;20173;-76
2023/12/10 09:21:30;;;;;;;37.57;5.30;;;;;;;;;;6306904;22;20166;-76
2023/12/10 09:23:57;;;;;;;30.83;5.27;;;;;;;;;;6306181;22;20174;-77
2023/12/10 09:26:25;;;;;;;30.80;4.53;;;;;;;;;;6306149;22;20227;-76
2023/12/10 09:28:52;;;;;;;27.20;4.37;;;;;;;;;;6306158;22;20690;-76
2023/12/10 09:31:20;;;;;;;29.47;4.67;;;;;;;;;;6307147;22;20593;-77
2023/12/10 09:33:47;;;;;;;30.57;4.57;;;;;;;;;;6306173;22;20170;-76
2023/12/10 09:36:17;;;;;;;43.33;6.17;;;;;;;;;;6305858;22;20170;-77
2023/12/10 09:38:45;;;;;;;38.87;5.50;;;;;;;;;;6306189;22;20219;-78
2023/12/10 09:41:12;;;;;;;31.73;5.20;;;;;;;;;;6305664;22;20239;-78
2023/12/10 09:43:39;;;;;;;30.10;4.50;;;;;;;;;;6306385;22;20177;-78
2023/12/10 09:46:08;;;;;;;29.43;4.87;;;;;;;;;;6306395;22;20170;-79
2023/12/10 09:48:36;;;;;;;30.43;5.00;;;;;;;;;;6305793;22;20169;-83
2023/12/10 09:51:04;;;;;;;31.07;5.77;;;;;;;;;;6306152;22;20202;-79
2023/12/10 09:53:32;;;;;;;33.10;4.90;;;;;;;;;;6306362;22;20170;-77
2023/12/10 09:55:59;;;;;;;26.00;4.70;;;;;;;;;;6305144;22;20190;-77
2023/12/10 09:58:27;;;;;;;36.57;6.17;;;;;;;;;;6303200;22;20511;-78
2023/12/10 10:00:54;;;;;;;31.73;5.27;;;;;;;;;;6305092;22;20255;-79
2023/12/10 10:03:22;;;;;;;33.57;4.63;;;;;;;;;;6305012;22;20169;-78
2023/12/10 10:05:49;;;;;;;30.70;4.53;;;;;;;;;;6305019;22;20687;-76
2023/12/10 10:08:16;;;;;;;31.63;4.57;;;;;;;;;;6305426;22;20227;-78
2023/12/10 10:10:45;;;;;;;31.00;5.47;;;;;;;;;;6303630;22;20693;-78
2023/12/10 10:13:12;;;;;;;30.40;4.60;;;;;;;;;;6304524;22;20640;-77
2023/12/10 10:15:39;;;;;;;31.37;4.67;;;;;;;;;;6306207;22;20235;-78
2023/12/10 10:18:07;;;;;;;30.13;5.20;;;;;;;;;;6305534;22;20564;-77
2023/12/10 10:20:34;;;;;;;25.93;5.13;;;;;;;;;;6303244;22;20178;-77
2023/12/10 10:23:01;;;;;;;24.43;4.57;;;;;;;;;;6305149;22;20286;-77
2023/12/10 10:25:29;;;;;;;27.40;4.50;;;;;;;;;;6305637;22;20227;-76
2023/12/10 10:27:57;;;;;;;24.27;4.30;;;;;;;;;;6305580;22;20170;-77
2023/12/10 10:30:25;;;;;;;21.87;3.97;;;;;;;;;;6305564;22;20235;-77
2023/12/10 10:32:52;;;;;;;26.63;4.70;;;;;;;;;;6305724;22;20174;-77
2023/12/10 10:35:20;;;;;;;28.30;4.57;;;;;;;;;;6305032;22;20628;-77
2023/12/10 10:37:47;;;;;;;26.40;4.07;;;;;;;;;;6305100;22;20169;-77
2023/12/10 10:40:15;;;;;;;20.93;3.50;;;;;;;;;;6304726;22;20162;-76
2023/12/10 10:42:42;;;;;;;23.73;4.27;;;;;;;;;;6304989;22;20554;-77
2023/12/10 10:45:11;;;;;;;19.70;3.70;;;;;;;;;;6305593;22;20178;-77
2023/12/10 10:47:38;;;;;;;24.50;4.23;;;;;;;;;;6305985;22;20162;-78
2023/12/10 10:50:06;;;;;;;23.30;3.60;;;;;;;;;;6304328;22;20739;-77
2023/12/10 10:52:34;;;;;;;20.93;4.43;;;;;;;;;;6304693;22;20201;-77
2023/12/10 10:55:02;;;;;;;20.00;4.07;;;;;;;;;;6304746;22;20174;-77
2023/12/10 10:57:30;;;;;;;21.27;3.70;;;;;;;;;;6304387;22;20193;-75
2023/12/10 10:59:57;;;;;;;20.37;3.67;;;;;;;;;;6303897;22;20254;-76
2023/12/10 11:02:26;;;;;;;18.77;3.43;;;;;;;;;;6305864;22;20227;-78
2023/12/10 11:04:53;;;;;;;17.63;3.20;;;;;;;;;;6304863;22;20219;-77
2023/12/10 11:07:21;;;;;;;19.50;3.30;;;;;;;;;;6304912;22;20172;-76
2023/12/10 11:09:55;;;;;;;15.70;3.17;;;;;;;;;;6304657;22;20601;-77
2023/12/10 11:12:37;;;;;;;16.10;3.40;;;;;;;;;;6303567;22;20550;-78
2023/12/10 11:15:05;;;;;;;15.57;3.30;;;;;;;;;;6304630;22;20170;-76
2023/12/10 11:17:33;;;;;;;15.73;3.47;;;;;;;;;;6305694;22;20173;-77
2023/12/10 11:20:00;;;;;;;17.77;3.17;;;;;;;;;;6303669;22;20181;-74
2023/12/10 11:22:28;;;;;;;14.57;3.00;;;;;;;;;;6304651;22;20495;-76
2023/12/10 11:24:55;;;;;;;11.97;2.90;;;;;;;;;;6305836;22;20174;-76
2023/12/10 11:27:25;;;;;;;13.40;2.77;;;;;;;;;;6305490;22;20534;-78
2023/12/10 11:29:52;;;;;;;10.13;2.97;;;;;;;;;;6304967;22;20701;-77
2023/12/10 11:32:19;;;;;;;9.87;2.03;;;;;;;;;;6305154;22;20219;-77
2023/12/10 11:34:48;;;;;;;14.10;2.70;;;;;;;;;;6304654;22;20219;-79
2023/12/10 11:37:15;;;;;;;10.20;2.20;;;;;;;;;;6304761;22;20170;-77
2023/12/10 11:39:42;;;;;;;9.23;2.17;;;;;;;;;;6305327;22;20223;-78
2023/12/10 11:42:09;;;;;;;8.80;2.10;;;;;;;;;;6305321;22;20177;-77
2023/12/10 11:44:36;;;;;;;8.33;1.60;;;;;;;;;;6304878;22;20558;-76
2023/12/10 11:47:05;;;;;;;7.77;1.90;;;;;;;;;;6304475;22;20223;-78
2023/12/10 11:49:33;;;;;;;8.00;1.67;;;;;;;;;;6305466;22;20172;-75
2023/12/10 11:52:02;;;;;;;6.10;1.80;;;;;;;;;;6305003;22;20284;-77
2023/12/10 11:54:29;;;;;;;6.13;1.67;;;;;;;;;;6304245;22;20162;-77
2023/12/10 11:56:57;;;;;;;4.73;1.50;;;;;;;;;;6304904;22;20636;-77
2023/12/10 11:59:24;;;;;;;6.03;1.60;;;;;;;;;;6304408;22;20198;-77
2023/12/10 12:01:51;;;;;;;6.03;1.60;;;;;;;;;;6306057;22;20658;-77
2023/12/10 12:04:18;;;;;;;4.10;1.30;;;;;;;;;;6307374;22;20162;-76
2023/12/10 12:06:46;;;;;;;4.40;1.43;;;;;;;;;;6307035;22;20226;-76
2023/12/10 12:09:20;;;;;;;4.43;1.30;;;;;;;;;;6306558;22;20173;-77
2023/12/10 12:11:47;;;;;;;4.80;1.10;;;;;;;;;;6306780;22;20201;-77
2023/12/10 12:14:16;;;;;;;4.00;1.13;;;;;;;;;;6307149;22;20628;-76
2023/12/10 12:16:43;;;;;;;5.23;1.23;;;;;;;;;;6307036;22;20201;-76
2023/12/10 12:19:10;;;;;;;4.63;2.03;;;;;;;;;;6306982;22;20170;-76
2023/12/10 12:21:38;;;;;;;3.60;1.20;;;;;;;;;;6306670;22;20194;-76
2023/12/10 12:24:05;;;;;;;3.53;0.87;;;;;;;;;;6305828;22;20620;-76
2023/12/10 12:26:34;;;;;;;4.10;1.37;;;;;;;;;;6307644;22;20170;-76
2023/12/10 12:29:01;;;;;;;3.17;1.30;;;;;;;;;;6306716;22;20170;-76
2023/12/10 12:31:28;;;;;;;2.00;0.83;;;;;;;;;;6306689;22;20518;-76
2023/12/10 12:33:55;;;;;;;3.13;1.13;;;;;;;;;;6306003;22;20692;-77
2023/12/10 12:36:23;;;;;;;2.83;1.17;;;;;;;;;;6306833;22;20174;-77
2023/12/10 12:38:50;;;;;;;3.17;2.33;;;;;;;;;;6306040;22;20170;-76
2023/12/10 12:41:17;;;;;;;4.30;1.60;;;;;;;;;;6305531;22;20260;-77
2023/12/10 12:43:46;;;;;;;2.23;1.00;;;;;;;;;;6306390;22;20640;-76
2023/12/10 12:46:14;;;;;;;2.70;1.93;;;;;;;;;;6305610;22;20216;-77
2023/12/10 12:48:41;;;;;;;4.00;2.10;;;;;;;;;;6306248;22;20224;-76
2023/12/10 12:51:08;;;;;;;3.13;1.90;;;;;;;;;;6306528;22;20197;-78
2023/12/10 12:53:36;;;;;;;1.20;1.00;;;;;;;;;;6306877;22;20223;-77
2023/12/10 12:56:03;;;;;;;2.10;1.10;;;;;;;;;;6306308;22;20170;-77
2023/12/10 12:58:30;;;;;;;4.30;1.40;;;;;;;;;;6306064;22;20169;-77
2023/12/10 13:00:59;;;;;;;5.17;2.30;;;;;;;;;;6305198;22;20208;-77
2023/12/10 13:03:26;;;;;;;3.60;2.87;;;;;;;;;;6305778;22;20219;-76
2023/12/10 13:05:54;;;;;;;2.27;1.57;;;;;;;;;;6306332;22;20174;-77
2023/12/10 13:08:23;;;;;;;4.07;2.63;;;;;;;;;;6304857;22;20170;-77
2023/12/10 13:10:50;;;;;;;3.37;1.60;;;;;;;;;;6304775;22;20206;-77
2023/12/10 13:13:17;;;;;;;2.30;1.30;;;;;;;;;;6304564;22;20174;-76
2023/12/10 13:15:45;;;;;;;2.70;1.43;;;;;;;;;;6305372;22;20227;-77
2023/12/10 13:18:14;;;;;;;1.60;1.30;;;;;;;;;;6305493;22;20174;-76
2023/12/10 13:20:41;;;;;;;1.40;1.20;;;;;;;;;;6305886;22;20181;-77
2023/12/10 13:23:09;;;;;;;1.97;1.30;;;;;;;;;;6305348;22;20170;-77
2023/12/10 13:25:36;;;;;;;1.90;1.43;;;;;;;;;;6304802;22;20170;-76
2023/12/10 13:28:05;;;;;;;2.58;1.80;;;;;;;;;;6305584;22;20170;-77
2023/12/10 13:30:33;;;;;;;2.70;2.00;;;;;;;;;;6304740;22;20284;-77
2023/12/10 13:33:00;;;;;;;3.53;2.67;;;;;;;;;;6304813;22;20174;-77
2023/12/10 13:35:28;;;;;;;2.40;2.20;;;;;;;;;;6306124;22;20235;-77
2023/12/10 13:37:56;;;;;;;6.50;4.93;;;;;;;;;;6305527;22;20170;-77
2023/12/10 13:40:24;;;;;;;5.80;3.50;;;;;;;;;;6305789;22;20640;-77
2023/12/10 13:42:51;;;;;;;4.57;3.10;;;;;;;;;;6305580;22;20908;-77
2023/12/10 13:45:18;;;;;;;3.22;2.30;;;;;;;;;;6304558;22;20558;-77
2023/12/10 13:47:46;;;;;;;3.05;2.53;;;;;;;;;;6305023;22;20224;-78
2023/12/10 13:50:13;;;;;;;3.22;2.50;;;;;;;;;;6304123;22;20166;-78
2023/12/10 13:52:42;;;;;;;3.03;2.50;;;;;;;;;;6305472;22;20219;-76
2023/12/10 13:55:10;;;;;;;3.35;2.40;;;;;;;;;;6305596;22;20241;-77
2023/12/10 13:57:37;;;;;;;3.90;2.20;;;;;;;;;;6306313;22;20219;-77
2023/12/10 14:00:08;;;;;;;4.35;2.45;;;;;;;;;;6305978;22;20583;-77
2023/12/10 14:02:35;;;;;;;2.58;2.33;;;;;;;;;;6306065;22;20508;-76
2023/12/10 14:05:03;;;;;;;4.32;2.35;;;;;;;;;;6306578;22;20170;-77
2023/12/10 14:07:31;;;;;;;2.63;2.00;;;;;;;;;;6306073;22;20174;-77
2023/12/10 14:09:59;;;;;;;3.42;2.15;;;;;;;;;;6305387;22;20200;-76
2023/12/10 14:12:27;;;;;;;4.30;2.83;;;;;;;;;;6306017;22;20207;-77
2023/12/10 14:14:54;;;;;;;4.78;3.00;;;;;;;;;;6305922;22;20174;-77
2023/12/10 14:17:22;;;;;;;5.15;2.88;;;;;;;;;;6306218;22;20287;-77
2023/12/10 14:19:49;;;;;;;3.75;2.75;;;;;;;;;;6305214;22;20166;-77
2023/12/10 14:22:16;;;;;;;3.58;2.65;;;;;;;;;;6305469;22;20785;-78
2023/12/10 14:24:43;;;;;;;3.67;2.13;;;;;;;;;;6306071;22;20224;-78
2023/12/10 14:27:12;;;;;;;2.90;1.98;;;;;;;;;;6304742;22;20170;-77
2023/12/10 14:29:39;;;;;;;2.53;2.00;;;;;;;;;;6303013;22;20231;-78
2023/12/10 14:32:09;;;;;;;3.55;1.95;;;;;;;;;;6300859;22;20251;-77
2023/12/10 14:34:38;;;;;;;3.05;2.20;;;;;;;;;;6301014;22;20245;-79